Main page
METAR-TAF:

METAR-TAF

Airports :

London-Southend, England

London Southend Airport

latitude: 51-34N, longitude: 000-42E, elevation: 15 m

Current weather observation

The report was made 49 minutes ago, at 21:20 UTC
Wind 5 kt from the North/Northwest
Temperature 9°C
Humidity 93%
Pressure 1015 hPa
Visibility: 7000 m
Broken clouds at a height of 500 ft

METAR: EGMC 192120Z 34005KT 7000 BKN005 09/08 Q1015

Time: 22:09 (22:09 UTC)

Forecast

The report was made 31 minutes ago, at 21:38 UTC
Forecast valid from 19 at 21 UTC to 20 at 06 UTC
Wind 9 kt from the Northwest
Visibility: 7000 m
Broken clouds at a height of 700 ft
Temporary
from 19 at 21 UTC to 20 at 06 UTC
Visibility: 3000 m
light drizzle, mist
Probability 40% :
Temporary
from 19 at 21 UTC to 20 at 06 UTC
Visibility: 1400 m
Broken clouds at a height of 300 ft
rain, drizzle

TAF: EGMC 192138Z 1921/2006 32009KT 7000 BKN007 TEMPO 1921/2006 3000 -DZ BR PROB40 TEMPO 1921/2006 1400 RADZ BKN003

Weather observations and forecasts of more than 4000 airports (METAR and TAF reports).

The available stations are represented by yellow and red dots on the map.

Hover mouse over dot to see the name of the station.

Then click to see weather observations and forecasts.

To change the map : click on the green buttons with a black cross to zoom in, on the green button with a dash to zoom out, or on the green arrows for adjacent maps.


METAR-TAF: